createdAt,value
2023-04-16T00:02:10.060Z,101666.75
2023-04-16T00:04:36.766Z,101662.03
2023-04-16T00:07:03.451Z,101673.84
2023-04-16T00:09:30.353Z,101671.44
2023-04-16T00:11:56.920Z,101670.78
2023-04-16T00:14:23.625Z,101673.47
2023-04-16T00:16:50.382Z,101672.16
2023-04-16T00:19:17.004Z,101678.88
2023-04-16T00:21:44.235Z,101675.34
2023-04-16T00:24:13.997Z,101681.25
2023-04-16T00:26:42.853Z,101675.50
2023-04-16T00:29:09.664Z,101674.66
2023-04-16T00:31:37.000Z,101678.56
2023-04-16T00:34:04.661Z,101683.94
2023-04-16T00:36:31.359Z,101680.22
2023-04-16T00:38:57.989Z,101683.94
2023-04-16T00:41:24.571Z,101682.22
2023-04-16T00:43:51.785Z,101676.84
2023-04-16T00:46:20.248Z,101675.16
2023-04-16T00:48:47.420Z,101677.84
2023-04-16T00:51:14.158Z,101670.13
2023-04-16T00:53:42.904Z,101659.50
2023-04-16T00:56:12.909Z,101674.97
2023-04-16T00:58:43.308Z,101667.75
2023-04-16T01:01:10.021Z,101671.63
2023-04-16T01:03:44.199Z,101671.09
2023-04-16T01:06:14.360Z,101674.47
2023-04-16T01:08:42.755Z,101671.44
2023-04-16T01:11:11.845Z,101662.19
2023-04-16T01:13:43.079Z,101672.78
2023-04-16T01:16:12.990Z,101684.09
2023-04-16T01:18:40.066Z,101677.16
2023-04-16T01:21:06.837Z,101676.66
2023-04-16T01:23:33.540Z,101676.84
2023-04-16T01:26:00.285Z,101673.97
2023-04-16T01:28:27.014Z,101675.47
2023-04-16T01:30:53.692Z,101686.59
2023-04-16T01:33:21.592Z,101674.97
2023-04-16T01:35:48.739Z,101673.28
2023-04-16T01:38:15.413Z,101662.66
2023-04-16T01:40:46.195Z,101668.75
2023-04-16T01:43:15.722Z,101677.69
2023-04-16T01:45:43.849Z,101669.75
2023-04-16T01:48:13.142Z,101676.84
2023-04-16T01:50:39.831Z,101673.28
2023-04-16T01:53:06.430Z,101677.16
2023-04-16T01:55:34.007Z,101684.56
2023-04-16T01:58:01.637Z,101677.84
2023-04-16T02:00:28.329Z,101686.28
2023-04-16T02:02:55.111Z,101682.53
2023-04-16T02:05:21.907Z,101689.28
2023-04-16T02:07:48.609Z,101683.25
2023-04-16T02:10:15.399Z,101684.09
2023-04-16T02:12:43.672Z,101683.22
2023-04-16T02:15:11.513Z,101684.38
2023-04-16T02:17:38.172Z,101692.66
2023-04-16T02:20:07.988Z,101692.66
2023-04-16T02:22:34.588Z,101686.41
2023-04-16T02:25:01.249Z,101677.28
2023-04-16T02:27:28.008Z,101690.25
2023-04-16T02:29:54.551Z,101683.38
2023-04-16T02:32:22.371Z,101688.06
2023-04-16T02:34:49.048Z,101694.97
2023-04-16T02:37:15.709Z,101692.97
2023-04-16T02:39:44.196Z,101704.41
2023-04-16T02:42:13.405Z,101698.19
2023-04-16T02:44:42.910Z,101710.81
2023-04-16T02:47:09.635Z,101704.06
2023-04-16T02:49:36.530Z,101712.63
2023-04-16T02:52:03.179Z,101705.41
2023-04-16T02:54:29.776Z,101711.81
2023-04-16T02:56:57.071Z,101711.81
2023-04-16T02:59:23.680Z,101712.66
2023-04-16T03:01:50.623Z,101717.84
2023-04-16T03:04:17.405Z,101715.16
2023-04-16T03:06:44.091Z,101720.53
2023-04-16T03:09:12.960Z,101712.16
2023-04-16T03:11:39.520Z,101712.63
2023-04-16T03:14:06.184Z,101718.88
2023-04-16T03:16:32.786Z,101716.84
2023-04-16T03:18:59.428Z,101723.88
2023-04-16T03:21:27.693Z,101724.72
2023-04-16T03:23:56.218Z,101727.25
2023-04-16T03:26:22.732Z,101732.63
2023-04-16T03:28:49.368Z,101732.97
2023-04-16T03:31:16.486Z,101727.06
2023-04-16T03:33:43.569Z,101723.16
2023-04-16T03:36:10.200Z,101731.44
2023-04-16T03:38:37.007Z,101740.41
2023-04-16T03:41:03.826Z,101739.03
2023-04-16T03:43:30.682Z,101745.59
2023-04-16T03:45:57.321Z,101741.53
2023-04-16T03:48:24.963Z,101737.81
2023-04-16T03:50:51.676Z,101747.56
2023-04-16T03:53:18.363Z,101749.09
2023-04-16T03:55:45.041Z,101754.63
2023-04-16T03:58:14.643Z,101742.72
2023-04-16T04:00:44.525Z,101753.16
2023-04-16T04:03:17.281Z,101760.22
2023-04-16T04:05:45.402Z,101757.03
2023-04-16T04:08:15.021Z,101757.38
2023-04-16T04:10:43.951Z,101757.53
2023-04-16T04:13:13.140Z,101757.03
2023-04-16T04:15:43.026Z,101762.91
2023-04-16T04:18:09.763Z,101770.03
2023-04-16T04:20:42.455Z,101760.28
2023-04-16T04:23:09.081Z,101765.81
2023-04-16T04:25:36.204Z,101772.06
2023-04-16T04:28:02.798Z,101764.31
2023-04-16T04:30:29.417Z,101766.34
2023-04-16T04:32:56.150Z,101769.69
2023-04-16T04:35:22.886Z,101768.91
2023-04-16T04:37:49.568Z,101770.41
2023-04-16T04:40:16.267Z,101759.97
2023-04-16T04:42:43.945Z,101769.75
2023-04-16T04:45:14.141Z,101767.44
2023-04-16T04:47:43.285Z,101768.78
2023-04-16T04:50:10.440Z,101760.00
2023-04-16T04:52:37.311Z,101769.47
2023-04-16T04:55:04.176Z,101757.50
2023-04-16T04:57:30.860Z,101770.50
2023-04-16T04:59:57.535Z,101778.56
2023-04-16T05:02:24.299Z,101775.03
2023-04-16T05:04:51.186Z,101770.88
2023-04-16T05:07:17.828Z,101772.06
2023-04-16T05:09:44.437Z,101775.16
2023-04-16T05:12:13.407Z,101771.06
2023-04-16T05:14:39.982Z,101779.88
2023-04-16T05:17:08.132Z,101783.59
2023-04-16T05:19:34.934Z,101780.06
2023-04-16T05:22:02.733Z,101783.44
2023-04-16T05:24:29.541Z,101787.81
2023-04-16T05:26:57.356Z,101792.88
2023-04-16T05:29:24.068Z,101796.25
2023-04-16T05:31:50.702Z,101796.59
2023-04-16T05:34:17.274Z,101801.16
2023-04-16T05:36:44.978Z,101794.38
2023-04-16T05:39:14.518Z,101793.91
2023-04-16T05:41:42.909Z,101803.00
2023-04-16T05:44:09.573Z,101799.47
2023-04-16T05:46:36.364Z,101807.88
2023-04-16T05:49:03.964Z,101809.38
2023-04-16T05:51:32.137Z,101815.47
2023-04-16T05:53:58.883Z,101812.25
2023-04-16T05:56:25.656Z,101817.34
2023-04-16T05:58:52.325Z,101824.41
2023-04-16T06:01:18.914Z,101814.06
2023-04-16T06:03:45.822Z,101821.09
2023-04-16T06:06:15.576Z,101824.25
2023-04-16T06:08:43.841Z,101825.47
2023-04-16T06:11:11.912Z,101823.00
2023-04-16T06:13:38.888Z,101826.91
2023-04-16T06:16:06.266Z,101825.22
2023-04-16T06:18:32.956Z,101817.97
2023-04-16T06:20:59.988Z,101828.22
2023-04-16T06:23:29.674Z,101836.16
2023-04-16T06:25:56.844Z,101836.63
2023-04-16T06:28:23.670Z,101835.13
2023-04-16T06:30:50.361Z,101838.66
2023-04-16T06:33:17.030Z,101841.69
2023-04-16T06:35:44.180Z,101831.53
2023-04-16T06:38:12.016Z,101842.50
2023-04-16T06:40:38.813Z,101843.13
2023-04-16T06:43:05.710Z,101847.44
2023-04-16T06:45:32.401Z,101856.00
2023-04-16T06:47:59.217Z,101854.16
2023-04-16T06:50:28.519Z,101863.72
2023-04-16T06:52:56.186Z,101864.50
2023-04-16T06:55:22.889Z,101881.66
2023-04-16T06:57:49.549Z,101868.13
2023-04-16T07:00:16.380Z,101880.38
2023-04-16T07:02:46.237Z,101880.94
2023-04-16T07:05:13.821Z,101880.41
2023-04-16T07:07:43.110Z,101875.25
2023-04-16T07:10:10.387Z,101876.78
2023-04-16T07:12:39.118Z,101887.03
2023-04-16T07:15:07.995Z,101875.72
2023-04-16T07:17:36.631Z,101876.22
2023-04-16T07:20:04.209Z,101887.72
2023-04-16T07:22:31.389Z,101887.91
2023-04-16T07:24:58.508Z,101873.94
2023-04-16T07:27:25.805Z,101879.53
2023-04-16T07:29:52.801Z,101875.13
2023-04-16T07:32:20.313Z,101890.03
2023-04-16T07:34:47.490Z,101890.38
2023-04-16T07:37:14.589Z,101896.09
2023-04-16T07:39:45.348Z,101893.22
2023-04-16T07:42:13.894Z,101905.22
2023-04-16T07:44:40.892Z,101903.53
2023-04-16T07:47:08.990Z,101904.88
2023-04-16T07:49:35.814Z,101906.59
2023-04-16T07:52:02.611Z,101916.03
2023-04-16T07:54:29.310Z,101926.47
2023-04-16T07:56:56.203Z,101924.28
2023-04-16T07:59:24.244Z,101922.44
2023-04-16T08:01:53.296Z,101920.75
2023-04-16T08:04:25.034Z,101919.56
2023-04-16T08:06:52.790Z,101917.72
2023-04-16T08:09:21.695Z,101922.13
2023-04-16T08:11:49.968Z,101922.44
2023-04-16T08:14:17.750Z,101919.91
2023-04-16T08:16:44.463Z,101912.84
2023-04-16T08:19:11.966Z,101913.97
2023-04-16T08:21:38.906Z,101915.94
2023-04-16T08:24:05.864Z,101922.75
2023-04-16T08:26:32.577Z,101920.03
2023-04-16T08:28:59.302Z,101936.53
2023-04-16T08:31:26.149Z,101929.47
2023-04-16T08:33:52.866Z,101930.69
2023-04-16T08:36:19.467Z,101952.91
2023-04-16T08:38:46.153Z,101948.38
2023-04-16T08:41:14.140Z,101952.81
2023-04-16T08:43:45.183Z,101960.78
2023-04-16T08:46:13.158Z,101959.06
2023-04-16T08:48:47.696Z,101961.88
2023-04-16T08:51:19.030Z,101963.72
2023-04-16T08:54:02.829Z,101962.44
2023-04-16T08:56:32.064Z,101966.56
2023-04-16T08:59:02.028Z,101966.47
2023-04-16T09:01:29.571Z,101963.56
2023-04-16T09:03:58.808Z,101968.91
2023-04-16T09:06:26.415Z,101974.31
2023-04-16T09:08:54.024Z,101971.50
2023-04-16T09:11:21.919Z,101978.81
2023-04-16T09:13:48.490Z,101977.03
2023-04-16T09:16:15.545Z,101985.75
2023-04-16T09:18:44.313Z,101987.28
2023-04-16T09:21:11.972Z,101995.72
2023-04-16T09:23:38.966Z,101998.28
2023-04-16T09:26:06.240Z,101994.16
2023-04-16T09:28:45.377Z,101998.00
2023-04-16T09:31:17.596Z,101997.44
2023-04-16T09:34:00.977Z,102009.69
2023-04-16T09:36:28.200Z,102004.09
2023-04-16T09:38:57.599Z,102004.09
2023-04-16T09:41:29.714Z,102000.56
2023-04-16T09:44:01.914Z,102007.59
2023-04-16T09:46:36.663Z,102007.28
2023-04-16T09:49:12.012Z,102019.81
2023-04-16T09:51:44.136Z,102015.94
2023-04-16T09:54:13.397Z,102024.84
2023-04-16T09:56:46.214Z,102020.34
2023-04-16T09:59:20.211Z,102021.72
2023-04-16T10:01:47.262Z,102027.50
2023-04-16T10:04:14.171Z,102021.19
2023-04-16T10:06:42.828Z,102025.00
2023-04-16T10:09:11.971Z,102028.28
2023-04-16T10:11:46.928Z,102027.81
2023-04-16T10:14:13.713Z,102034.72
2023-04-16T10:16:44.637Z,102026.56
2023-04-16T10:19:13.507Z,102029.50
2023-04-16T10:21:48.207Z,102026.03
2023-04-16T10:24:17.480Z,102033.38
2023-04-16T10:26:44.796Z,102032.63
2023-04-16T10:29:14.587Z,102041.44
2023-04-16T10:31:44.934Z,102039.78
2023-04-16T10:34:16.011Z,102038.53
2023-04-16T10:36:50.722Z,102042.09
2023-04-16T10:39:23.805Z,102047.97
2023-04-16T10:42:13.631Z,102048.59
2023-04-16T10:44:45.440Z,102040.41
2023-04-16T10:47:14.238Z,102047.97
2023-04-16T10:49:44.116Z,102050.00
2023-04-16T10:52:18.668Z,102044.69
2023-04-16T10:54:47.834Z,102051.16
2023-04-16T10:57:18.358Z,102049.47
2023-04-16T10:59:46.100Z,102053.59
2023-04-16T11:02:18.945Z,102054.03
2023-04-16T11:04:47.530Z,102048.88
2023-04-16T11:07:18.907Z,102051.97
2023-04-16T11:09:54.561Z,102048.81
2023-04-16T11:12:27.899Z,102052.59
2023-04-16T11:15:02.711Z,102050.91
2023-04-16T11:17:46.592Z,102056.72
2023-04-16T11:20:28.445Z,102068.81
2023-04-16T11:22:57.423Z,102059.94
2023-04-16T11:25:34.126Z,102065.56
2023-04-16T11:28:02.638Z,102069.59
2023-04-16T11:30:37.001Z,102069.09
2023-04-16T11:33:04.837Z,102062.59
2023-04-16T11:35:31.644Z,102063.50
2023-04-16T11:37:58.808Z,102068.78
2023-04-16T11:40:30.072Z,102067.72
2023-04-16T11:43:01.252Z,102062.44
2023-04-16T11:45:28.167Z,102066.84
2023-04-16T11:47:57.362Z,102078.41
2023-04-16T11:50:29.793Z,102075.88
2023-04-16T11:53:03.309Z,102070.41
2023-04-16T11:55:29.978Z,102070.53
2023-04-16T11:57:56.660Z,102075.44
2023-04-16T12:00:25.018Z,102078.34
2023-04-16T12:02:54.167Z,102102.19
2023-04-16T12:05:34.054Z,102090.22
2023-04-16T12:08:13.621Z,102089.66
2023-04-16T12:10:56.036Z,102082.03
2023-04-16T12:13:22.860Z,102075.00
2023-04-16T12:15:51.528Z,102081.19
2023-04-16T12:18:20.333Z,102074.22
2023-04-16T12:20:47.168Z,102077.97
2023-04-16T12:23:28.064Z,102078.59
2023-04-16T12:25:56.021Z,102079.69
2023-04-16T12:28:30.176Z,102075.59
2023-04-16T12:30:57.127Z,102079.38
2023-04-16T12:33:23.894Z,102074.03
2023-04-16T12:35:51.076Z,102077.22
2023-04-16T12:38:17.685Z,102089.97
2023-04-16T12:40:47.342Z,102079.63
2023-04-16T12:43:14.034Z,102079.22
2023-04-16T12:45:44.155Z,102092.69
2023-04-16T12:48:13.353Z,102090.91
2023-04-16T12:50:40.249Z,102092.44
2023-04-16T12:53:07.174Z,102088.34
2023-04-16T12:55:33.826Z,102086.19
2023-04-16T12:58:00.448Z,102079.94
2023-04-16T13:00:27.042Z,102085.22
2023-04-16T13:02:56.897Z,102091.50
2023-04-16T13:05:23.670Z,102080.72
2023-04-16T13:07:50.362Z,102085.00
2023-04-16T13:10:17.391Z,102074.31
2023-04-16T13:12:49.372Z,102084.63
2023-04-16T13:15:16.163Z,102090.19
2023-04-16T13:17:47.472Z,102090.31
2023-04-16T13:20:14.122Z,102089.00
2023-04-16T13:22:44.302Z,102086.59
2023-04-16T13:25:13.544Z,102093.47
2023-04-16T13:27:40.407Z,102088.25
2023-04-16T13:30:07.917Z,102103.41
2023-04-16T13:32:34.614Z,102114.75
2023-04-16T13:35:01.397Z,102107.59
2023-04-16T13:37:29.070Z,102102.03
2023-04-16T13:39:56.631Z,102115.78
2023-04-16T13:42:23.746Z,102114.56
2023-04-16T13:44:53.241Z,102119.53
2023-04-16T13:47:22.459Z,102119.06
2023-04-16T13:49:49.146Z,102115.81
2023-04-16T13:52:20.032Z,102115.28
2023-04-16T13:54:47.809Z,102111.03
2023-04-16T13:57:15.727Z,102109.72
2023-04-16T13:59:48.323Z,102121.88
2023-04-16T14:02:16.564Z,102116.59
2023-04-16T14:04:44.841Z,102109.66
2023-04-16T14:07:14.292Z,102104.19
2023-04-16T14:09:45.423Z,102111.72
2023-04-16T14:12:14.928Z,102097.41
2023-04-16T14:14:44.140Z,102104.78
2023-04-16T14:17:14.116Z,102114.50
2023-04-16T14:19:44.807Z,102118.69
2023-04-16T14:22:13.844Z,102113.06
2023-04-16T14:24:49.297Z,102110.13
2023-04-16T14:27:17.033Z,102121.84
2023-04-16T14:29:46.429Z,102112.16
2023-04-16T14:32:14.831Z,102117.03
2023-04-16T14:34:44.246Z,102121.19
2023-04-16T14:37:13.533Z,102115.94
2023-04-16T14:39:40.291Z,102124.16
2023-04-16T14:42:07.820Z,102121.03
2023-04-16T14:44:34.428Z,102126.72
2023-04-16T14:47:01.246Z,102121.47
2023-04-16T14:49:27.983Z,102122.28
2023-04-16T14:51:54.923Z,102128.16
2023-04-16T14:54:23.429Z,102119.34
2023-04-16T14:56:50.662Z,102127.06
2023-04-16T14:59:17.366Z,102129.31
2023-04-16T15:01:45.450Z,102128.38
2023-04-16T15:04:17.257Z,102131.69
2023-04-16T15:06:46.534Z,102128.19
2023-04-16T15:09:13.990Z,102136.53
2023-04-16T15:11:42.939Z,102139.72
2023-04-16T15:14:11.270Z,102142.00
2023-04-16T15:16:38.687Z,102146.50
2023-04-16T15:19:05.537Z,102153.69
2023-04-16T15:21:34.547Z,102155.28
2023-04-16T15:24:01.474Z,102154.22
2023-04-16T15:26:28.180Z,102141.66
2023-04-16T15:28:54.969Z,102142.34
2023-04-16T15:31:22.278Z,102143.50
2023-04-16T15:33:50.089Z,102151.25
2023-04-16T15:36:17.993Z,102153.28
2023-04-16T15:38:45.506Z,102146.31
2023-04-16T15:41:14.283Z,102146.25
2023-04-16T15:43:43.204Z,102161.28
2023-04-16T15:46:10.053Z,102160.13
2023-04-16T15:48:38.556Z,102162.06
2023-04-16T15:51:05.606Z,102158.63
2023-04-16T15:53:32.392Z,102129.47
2023-04-16T15:55:59.893Z,102150.25
2023-04-16T15:58:29.636Z,102151.38
2023-04-16T16:00:56.217Z,102160.25
2023-04-16T16:03:23.049Z,102154.03
2023-04-16T16:05:51.208Z,102164.53
2023-04-16T16:08:18.521Z,102162.56
2023-04-16T16:10:45.464Z,102165.81
2023-04-16T16:13:16.074Z,102153.13
2023-04-16T16:15:45.216Z,102167.28
2023-04-16T16:18:16.102Z,102170.22
2023-04-16T16:20:48.785Z,102176.00
2023-04-16T16:23:15.657Z,102171.63
2023-04-16T16:25:44.594Z,102174.63
2023-04-16T16:28:14.091Z,102173.63
2023-04-16T16:30:45.060Z,102172.38
2023-04-16T16:33:17.647Z,102179.69
2023-04-16T16:35:46.072Z,102185.44
2023-04-16T16:38:16.024Z,102179.97
2023-04-16T16:40:46.374Z,102175.38
2023-04-16T16:43:17.015Z,102178.28
2023-04-16T16:45:48.905Z,102186.72
2023-04-16T16:48:15.648Z,102181.09
2023-04-16T16:50:45.524Z,102189.91
2023-04-16T16:53:27.380Z,102197.22
2023-04-16T16:55:57.841Z,102185.31
2023-04-16T16:58:24.563Z,102196.44
2023-04-16T17:00:51.183Z,102188.19
2023-04-16T17:03:18.127Z,102204.69
2023-04-16T17:05:45.662Z,102197.00
2023-04-16T17:08:16.245Z,102204.78
2023-04-16T17:10:46.419Z,102204.16
2023-04-16T17:13:19.616Z,102213.47
2023-04-16T17:15:47.154Z,102207.94
2023-04-16T17:18:14.706Z,102212.34
2023-04-16T17:20:43.851Z,102218.38
2023-04-16T17:23:13.288Z,102217.41
2023-04-16T17:25:40.096Z,102222.81
2023-04-16T17:28:07.981Z,102218.41
2023-04-16T17:30:34.536Z,102209.97
2023-04-16T17:33:03.067Z,102220.09
2023-04-16T17:35:30.594Z,102213.97
2023-04-16T17:37:57.496Z,102224.13
2023-04-16T17:40:24.099Z,102226.47
2023-04-16T17:42:51.396Z,102223.06
2023-04-16T17:45:18.133Z,102224.75
2023-04-16T17:47:44.882Z,102230.09
2023-04-16T17:50:14.279Z,102232.63
2023-04-16T17:52:42.900Z,102232.06
2023-04-16T17:55:13.649Z,102248.25
2023-04-16T17:57:42.843Z,102248.19
2023-04-16T18:00:12.986Z,102245.47
2023-04-16T18:02:43.479Z,102238.66
2023-04-16T18:05:16.340Z,102251.63
2023-04-16T18:07:46.503Z,102255.13
2023-04-16T18:10:13.493Z,102257.78
2023-04-16T18:12:40.234Z,102258.75
2023-04-16T18:15:07.590Z,102257.72
2023-04-16T18:17:34.344Z,102260.38
2023-04-16T18:20:02.093Z,102265.22
2023-04-16T18:22:29.128Z,102269.56
2023-04-16T18:24:55.918Z,102254.22
2023-04-16T18:27:23.226Z,102262.16
2023-04-16T18:29:51.269Z,102278.44
2023-04-16T18:32:20.399Z,102259.25
2023-04-16T18:34:47.042Z,102274.41
2023-04-16T18:37:19.808Z,102287.06
2023-04-16T18:39:46.724Z,102291.59
2023-04-16T18:42:16.105Z,102301.97
2023-04-16T18:44:54.139Z,102295.25
2023-04-16T18:47:20.933Z,102295.94
2023-04-16T18:49:47.925Z,102298.78
2023-04-16T18:52:14.699Z,102311.09
2023-04-16T18:54:43.560Z,102307.88
2023-04-16T18:57:10.396Z,102306.09
2023-04-16T18:59:37.423Z,102313.88
2023-04-16T19:02:04.366Z,102307.38
2023-04-16T19:04:31.623Z,102324.94
2023-04-16T19:06:58.339Z,102325.28
2023-04-16T19:09:26.543Z,102322.00
2023-04-16T19:11:53.174Z,102323.53
2023-04-16T19:14:20.128Z,102330.94
2023-04-16T19:16:47.509Z,102321.00
2023-04-16T19:19:14.347Z,102328.69
2023-04-16T19:21:43.367Z,102309.19
2023-04-16T19:24:10.039Z,102330.84
2023-04-16T19:26:36.714Z,102328.75
2023-04-16T19:29:03.594Z,102327.63
2023-04-16T19:31:30.542Z,102334.72
2023-04-16T19:33:57.196Z,102315.09
2023-04-16T19:36:23.841Z,102333.88
2023-04-16T19:38:50.665Z,102336.44
2023-04-16T19:41:17.466Z,102334.44
2023-04-16T19:43:45.392Z,102332.91
2023-04-16T19:46:15.543Z,102341.09
2023-04-16T19:48:45.189Z,102347.22
2023-04-16T19:51:15.048Z,102341.94
2023-04-16T19:53:44.625Z,102346.09
2023-04-16T19:56:12.302Z,102342.72
2023-04-16T19:58:39.361Z,102345.31
2023-04-16T20:01:10.314Z,102344.56
2023-04-16T20:03:40.156Z,102343.59
2023-04-16T20:06:08.009Z,102338.91
2023-04-16T20:08:34.735Z,102337.91
2023-04-16T20:11:01.518Z,102332.53
2023-04-16T20:13:28.214Z,102336.75
2023-04-16T20:15:54.984Z,102329.69
2023-04-16T20:18:21.640Z,102345.00
2023-04-16T20:20:48.760Z,102348.53
2023-04-16T20:23:15.605Z,102351.53
2023-04-16T20:25:46.409Z,102339.19
2023-04-16T20:28:21.137Z,102345.72
2023-04-16T20:30:47.826Z,102350.56
2023-04-16T20:33:14.530Z,102349.16
2023-04-16T20:35:43.610Z,102342.78
2023-04-16T20:38:10.234Z,102348.16
2023-04-16T20:40:38.797Z,102347.84
2023-04-16T20:43:10.043Z,102353.25
2023-04-16T20:45:42.508Z,102344.75
2023-04-16T20:48:13.385Z,102348.69
2023-04-16T20:50:40.115Z,102356.66
2023-04-16T20:53:06.771Z,102352.66
2023-04-16T20:55:33.332Z,102362.47
2023-04-16T20:57:59.939Z,102358.88
2023-04-16T21:00:27.253Z,102361.59
2023-04-16T21:02:56.706Z,102352.97
2023-04-16T21:05:23.890Z,102358.88
2023-04-16T21:07:50.537Z,102361.59
2023-04-16T21:10:20.321Z,102365.59
2023-04-16T21:12:47.127Z,102362.03
2023-04-16T21:15:13.805Z,102361.31
2023-04-16T21:17:41.230Z,102365.16
2023-04-16T21:20:13.641Z,102372.81
2023-04-16T21:22:40.370Z,102378.31
2023-04-16T21:25:07.814Z,102375.94
2023-04-16T21:27:34.478Z,102374.06
2023-04-16T21:30:01.212Z,102377.63
2023-04-16T21:32:27.947Z,102362.75
2023-04-16T21:34:54.724Z,102371.75
2023-04-16T21:37:21.333Z,102369.22
2023-04-16T21:39:49.032Z,102364.56
2023-04-16T21:42:15.706Z,102360.47
2023-04-16T21:44:45.352Z,102368.53
2023-04-16T21:47:15.836Z,102365.44
2023-04-16T21:49:45.796Z,102361.75
2023-04-16T21:52:18.312Z,102363.59
2023-04-16T21:54:45.477Z,102357.50
2023-04-16T21:57:16.106Z,102359.63
2023-04-16T21:59:45.958Z,102352.56
2023-04-16T22:02:15.587Z,102370.13
2023-04-16T22:04:45.753Z,102365.59
2023-04-16T22:07:16.904Z,102363.91
2023-04-16T22:09:44.488Z,102355.25
2023-04-16T22:12:13.546Z,102363.31
2023-04-16T22:14:46.162Z,102369.56
2023-04-16T22:17:17.213Z,102364.59
2023-04-16T22:19:44.988Z,102361.75
2023-04-16T22:22:13.665Z,102357.53
2023-04-16T22:24:40.635Z,102361.91
2023-04-16T22:27:07.670Z,102367.28
2023-04-16T22:29:34.399Z,102364.44
2023-04-16T22:32:02.008Z,102365.31
2023-04-16T22:34:28.740Z,102360.78
2023-04-16T22:36:56.311Z,102369.72
2023-04-16T22:39:23.145Z,102366.28
2023-04-16T22:41:49.719Z,102364.31
2023-04-16T22:44:16.926Z,102362.63
2023-04-16T22:46:44.253Z,102362.75
2023-04-16T22:49:13.498Z,102362.06
2023-04-16T22:51:40.277Z,102367.59
2023-04-16T22:54:07.901Z,102366.75
2023-04-16T22:56:34.560Z,102364.91
2023-04-16T22:59:01.376Z,102375.38
2023-04-16T23:01:28.042Z,102377.66
2023-04-16T23:03:54.817Z,102367.47
2023-04-16T23:06:22.162Z,102372.84
2023-04-16T23:08:49.869Z,102367.50
2023-04-16T23:11:16.521Z,102378.28
2023-04-16T23:13:44.309Z,102365.25
2023-04-16T23:16:14.011Z,102358.75
2023-04-16T23:18:43.093Z,102368.50
2023-04-16T23:21:09.813Z,102367.78
2023-04-16T23:23:36.758Z,102369.63
2023-04-16T23:26:03.616Z,102364.69
2023-04-16T23:28:30.398Z,102363.28
2023-04-16T23:30:57.116Z,102371.19
2023-04-16T23:33:23.882Z,102362.69
2023-04-16T23:35:50.756Z,102364.81
2023-04-16T23:38:18.638Z,102368.66
2023-04-16T23:40:45.370Z,102366.13
2023-04-16T23:43:15.710Z,102372.03
2023-04-16T23:45:45.495Z,102364.97
2023-04-16T23:48:13.968Z,102367.94
2023-04-16T23:50:40.678Z,102359.59
2023-04-16T23:53:07.998Z,102369.94
2023-04-16T23:55:34.714Z,102369.78
2023-04-16T23:58:01.369Z,102364.69
